sensor_id;sensor_type;location;lat;lon;timestamp;P1;durP1;ratioP1;P2;durP2;ratioP2
16510;SDS011;8368;48.772;8.754;2023-06-10T00:00:12;4.75;;;4.35;;
16510;SDS011;8368;48.772;8.754;2023-06-10T00:02:40;4.50;;;3.97;;
16510;SDS011;8368;48.772;8.754;2023-06-10T00:05:06;4.40;;;4.10;;
16510;SDS011;8368;48.772;8.754;2023-06-10T00:07:33;4.63;;;4.28;;
16510;SDS011;8368;48.772;8.754;2023-06-10T00:10:02;3.72;;;3.53;;
16510;SDS011;8368;48.772;8.754;2023-06-10T00:12:31;4.00;;;3.80;;
16510;SDS011;8368;48.772;8.754;2023-06-10T00:15:02;4.30;;;4.00;;
16510;SDS011;8368;48.772;8.754;2023-06-10T00:17:29;4.35;;;4.05;;
16510;SDS011;8368;48.772;8.754;2023-06-10T00:19:55;4.25;;;4.03;;
16510;SDS011;8368;48.772;8.754;2023-06-10T00:22:21;4.10;;;3.80;;
16510;SDS011;8368;48.772;8.754;2023-06-10T00:24:47;4.65;;;4.25;;
16510;SDS011;8368;48.772;8.754;2023-06-10T00:27:12;4.53;;;4.13;;
16510;SDS011;8368;48.772;8.754;2023-06-10T00:29:38;4.55;;;4.25;;
16510;SDS011;8368;48.772;8.754;2023-06-10T00:32:04;4.63;;;4.25;;
16510;SDS011;8368;48.772;8.754;2023-06-10T00:34:30;4.70;;;4.40;;
16510;SDS011;8368;48.772;8.754;2023-06-10T00:36:57;4.18;;;3.90;;
16510;SDS011;8368;48.772;8.754;2023-06-10T00:39:22;4.13;;;3.92;;
16510;SDS011;8368;48.772;8.754;2023-06-10T00:41:48;4.82;;;4.43;;
16510;SDS011;8368;48.772;8.754;2023-06-10T00:44:13;4.95;;;4.60;;
16510;SDS011;8368;48.772;8.754;2023-06-10T00:46:39;4.63;;;4.22;;
16510;SDS011;8368;48.772;8.754;2023-06-10T00:49:04;4.53;;;4.22;;
16510;SDS011;8368;48.772;8.754;2023-06-10T00:51:31;4.55;;;4.15;;
16510;SDS011;8368;48.772;8.754;2023-06-10T00:53:56;4.38;;;4.18;;
16510;SDS011;8368;48.772;8.754;2023-06-10T00:56:22;4.95;;;4.55;;
16510;SDS011;8368;48.772;8.754;2023-06-10T00:58:48;4.95;;;4.57;;
16510;SDS011;8368;48.772;8.754;2023-06-10T01:01:13;5.30;;;4.90;;
16510;SDS011;8368;48.772;8.754;2023-06-10T01:03:39;4.32;;;3.97;;
16510;SDS011;8368;48.772;8.754;2023-06-10T01:11:23;4.45;;;4.15;;
16510;SDS011;8368;48.772;8.754;2023-06-10T01:13:53;4.22;;;3.92;;
16510;SDS011;8368;48.772;8.754;2023-06-10T01:16:23;5.05;;;4.57;;
16510;SDS011;8368;48.772;8.754;2023-06-10T01:18:48;3.95;;;3.65;;
16510;SDS011;8368;48.772;8.754;2023-06-10T01:21:20;4.78;;;4.47;;
16510;SDS011;8368;48.772;8.754;2023-06-10T01:23:49;4.40;;;4.10;;
16510;SDS011;8368;48.772;8.754;2023-06-10T01:26:15;4.07;;;3.83;;
16510;SDS011;8368;48.772;8.754;2023-06-10T01:28:44;4.57;;;4.18;;
16510;SDS011;8368;48.772;8.754;2023-06-10T01:31:23;5.00;;;4.60;;
16510;SDS011;8368;48.772;8.754;2023-06-10T01:34:07;4.93;;;4.53;;
16510;SDS011;8368;48.772;8.754;2023-06-10T01:36:35;5.25;;;4.85;;
16510;SDS011;8368;48.772;8.754;2023-06-10T01:39:02;4.55;;;4.25;;
16510;SDS011;8368;48.772;8.754;2023-06-10T01:41:29;4.70;;;4.35;;
16510;SDS011;8368;48.772;8.754;2023-06-10T01:43:55;4.38;;;4.07;;
16510;SDS011;8368;48.772;8.754;2023-06-10T01:46:21;4.63;;;4.28;;
16510;SDS011;8368;48.772;8.754;2023-06-10T01:48:47;4.65;;;4.35;;
16510;SDS011;8368;48.772;8.754;2023-06-10T01:51:12;4.85;;;4.45;;
16510;SDS011;8368;48.772;8.754;2023-06-10T01:53:38;4.32;;;4.03;;
16510;SDS011;8368;48.772;8.754;2023-06-10T01:56:03;4.80;;;4.45;;
16510;SDS011;8368;48.772;8.754;2023-06-10T01:58:29;5.10;;;4.55;;
16510;SDS011;8368;48.772;8.754;2023-06-10T02:00:55;4.60;;;4.32;;
16510;SDS011;8368;48.772;8.754;2023-06-10T02:03:21;4.93;;;4.53;;
16510;SDS011;8368;48.772;8.754;2023-06-10T02:05:46;5.88;;;4.65;;
16510;SDS011;8368;48.772;8.754;2023-06-10T02:08:12;4.32;;;4.10;;
16510;SDS011;8368;48.772;8.754;2023-06-10T02:10:37;5.13;;;4.72;;
16510;SDS011;8368;48.772;8.754;2023-06-10T02:13:03;4.80;;;4.45;;
16510;SDS011;8368;48.772;8.754;2023-06-10T02:15:28;4.30;;;3.92;;
16510;SDS011;8368;48.772;8.754;2023-06-10T02:17:54;4.38;;;4.03;;
16510;SDS011;8368;48.772;8.754;2023-06-10T02:20:20;4.60;;;4.30;;
16510;SDS011;8368;48.772;8.754;2023-06-10T02:22:46;4.68;;;4.35;;
16510;SDS011;8368;48.772;8.754;2023-06-10T02:25:12;4.85;;;4.35;;
16510;SDS011;8368;48.772;8.754;2023-06-10T02:27:37;4.88;;;4.53;;
16510;SDS011;8368;48.772;8.754;2023-06-10T02:30:03;4.60;;;4.22;;
16510;SDS011;8368;48.772;8.754;2023-06-10T02:32:29;4.80;;;4.32;;
16510;SDS011;8368;48.772;8.754;2023-06-10T02:34:54;4.93;;;4.43;;
16510;SDS011;8368;48.772;8.754;2023-06-10T02:37:20;4.05;;;3.75;;
16510;SDS011;8368;48.772;8.754;2023-06-10T02:39:45;4.00;;;3.78;;
16510;SDS011;8368;48.772;8.754;2023-06-10T02:42:11;4.25;;;4.05;;
16510;SDS011;8368;48.772;8.754;2023-06-10T02:44:37;5.22;;;4.82;;
16510;SDS011;8368;48.772;8.754;2023-06-10T02:47:03;4.05;;;3.75;;
16510;SDS011;8368;48.772;8.754;2023-06-10T02:49:28;4.65;;;4.32;;
16510;SDS011;8368;48.772;8.754;2023-06-10T02:51:54;4.47;;;4.18;;
16510;SDS011;8368;48.772;8.754;2023-06-10T02:54:21;4.13;;;3.83;;
16510;SDS011;8368;48.772;8.754;2023-06-10T02:56:47;4.57;;;4.18;;
16510;SDS011;8368;48.772;8.754;2023-06-10T02:59:13;5.07;;;4.68;;
16510;SDS011;8368;48.772;8.754;2023-06-10T03:01:39;4.90;;;4.50;;
16510;SDS011;8368;48.772;8.754;2023-06-10T03:04:05;4.40;;;4.15;;
16510;SDS011;8368;48.772;8.754;2023-06-10T03:06:32;4.50;;;4.20;;
16510;SDS011;8368;48.772;8.754;2023-06-10T03:09:01;4.78;;;4.43;;
16510;SDS011;8368;48.772;8.754;2023-06-10T03:11:29;4.53;;;4.22;;
16510;SDS011;8368;48.772;8.754;2023-06-10T03:13:54;4.68;;;4.28;;
16510;SDS011;8368;48.772;8.754;2023-06-10T03:16:21;4.80;;;4.45;;
16510;SDS011;8368;48.772;8.754;2023-06-10T03:18:46;4.88;;;4.55;;
16510;SDS011;8368;48.772;8.754;2023-06-10T03:21:13;4.32;;;4.03;;
16510;SDS011;8368;48.772;8.754;2023-06-10T03:23:39;4.50;;;4.10;;
16510;SDS011;8368;48.772;8.754;2023-06-10T03:26:04;4.63;;;4.32;;
16510;SDS011;8368;48.772;8.754;2023-06-10T03:28:30;4.80;;;4.40;;
16510;SDS011;8368;48.772;8.754;2023-06-10T03:30:56;5.15;;;4.65;;
16510;SDS011;8368;48.772;8.754;2023-06-10T03:33:22;4.28;;;3.97;;
16510;SDS011;8368;48.772;8.754;2023-06-10T03:35:47;4.53;;;4.13;;
16510;SDS011;8368;48.772;8.754;2023-06-10T03:38:13;4.25;;;3.95;;
16510;SDS011;8368;48.772;8.754;2023-06-10T03:40:39;4.38;;;4.07;;
16510;SDS011;8368;48.772;8.754;2023-06-10T03:43:05;4.93;;;4.53;;
16510;SDS011;8368;48.772;8.754;2023-06-10T03:45:30;4.63;;;4.32;;
16510;SDS011;8368;48.772;8.754;2023-06-10T03:47:57;4.68;;;4.28;;
16510;SDS011;8368;48.772;8.754;2023-06-10T03:50:22;4.88;;;4.43;;
16510;SDS011;8368;48.772;8.754;2023-06-10T03:52:49;4.85;;;4.45;;
16510;SDS011;8368;48.772;8.754;2023-06-10T03:55:15;4.90;;;4.50;;
16510;SDS011;8368;48.772;8.754;2023-06-10T03:57:41;4.45;;;4.07;;
16510;SDS011;8368;48.772;8.754;2023-06-10T04:00:07;4.28;;;3.97;;
16510;SDS011;8368;48.772;8.754;2023-06-10T04:02:36;4.32;;;4.03;;
16510;SDS011;8368;48.772;8.754;2023-06-10T04:05:02;5.00;;;4.60;;
16510;SDS011;8368;48.772;8.754;2023-06-10T04:07:27;4.15;;;3.85;;
16510;SDS011;8368;48.772;8.754;2023-06-10T04:09:53;5.15;;;4.65;;
16510;SDS011;8368;48.772;8.754;2023-06-10T04:12:19;4.90;;;4.50;;
16510;SDS011;8368;48.772;8.754;2023-06-10T04:14:44;5.53;;;5.03;;
16510;SDS011;8368;48.772;8.754;2023-06-10T04:17:10;4.63;;;4.28;;
16510;SDS011;8368;48.772;8.754;2023-06-10T04:19:35;4.50;;;4.20;;
16510;SDS011;8368;48.772;8.754;2023-06-10T04:22:01;4.40;;;4.10;;
16510;SDS011;8368;48.772;8.754;2023-06-10T04:24:30;4.50;;;4.10;;
16510;SDS011;8368;48.772;8.754;2023-06-10T04:26:55;4.13;;;3.85;;
16510;SDS011;8368;48.772;8.754;2023-06-10T04:29:21;4.43;;;4.05;;
16510;SDS011;8368;48.772;8.754;2023-06-10T04:31:46;4.05;;;3.85;;
16510;SDS011;8368;48.772;8.754;2023-06-10T04:34:12;4.53;;;4.22;;
16510;SDS011;8368;48.772;8.754;2023-06-10T04:36:38;4.25;;;3.95;;
16510;SDS011;8368;48.772;8.754;2023-06-10T04:39:04;4.35;;;4.00;;
16510;SDS011;8368;48.772;8.754;2023-06-10T04:41:30;4.55;;;4.10;;
16510;SDS011;8368;48.772;8.754;2023-06-10T04:43:56;4.55;;;4.15;;
16510;SDS011;8368;48.772;8.754;2023-06-10T04:46:22;5.10;;;4.20;;
16510;SDS011;8368;48.772;8.754;2023-06-10T04:48:49;4.18;;;3.88;;
16510;SDS011;8368;48.772;8.754;2023-06-10T04:51:14;4.07;;;3.80;;
16510;SDS011;8368;48.772;8.754;2023-06-10T04:53:40;3.80;;;3.50;;
16510;SDS011;8368;48.772;8.754;2023-06-10T04:56:06;3.72;;;3.42;;
16510;SDS011;8368;48.772;8.754;2023-06-10T04:58:32;4.32;;;4.03;;
16510;SDS011;8368;48.772;8.754;2023-06-10T05:00:58;4.13;;;3.90;;
16510;SDS011;8368;48.772;8.754;2023-06-10T05:03:24;4.50;;;4.20;;
16510;SDS011;8368;48.772;8.754;2023-06-10T05:05:50;4.28;;;3.97;;
16510;SDS011;8368;48.772;8.754;2023-06-10T05:08:15;4.50;;;4.20;;
16510;SDS011;8368;48.772;8.754;2023-06-10T05:10:41;4.22;;;4.00;;
16510;SDS011;8368;48.772;8.754;2023-06-10T05:13:07;4.38;;;3.90;;
16510;SDS011;8368;48.772;8.754;2023-06-10T05:15:32;3.78;;;3.58;;
16510;SDS011;8368;48.772;8.754;2023-06-10T05:17:58;3.90;;;3.60;;
16510;SDS011;8368;48.772;8.754;2023-06-10T05:20:24;3.92;;;3.63;;
16510;SDS011;8368;48.772;8.754;2023-06-10T05:22:50;4.15;;;3.78;;
16510;SDS011;8368;48.772;8.754;2023-06-10T05:25:15;4.20;;;3.80;;
16510;SDS011;8368;48.772;8.754;2023-06-10T05:27:41;3.72;;;3.53;;
16510;SDS011;8368;48.772;8.754;2023-06-10T05:30:08;3.85;;;3.55;;
16510;SDS011;8368;48.772;8.754;2023-06-10T05:32:35;4.03;;;3.72;;
16510;SDS011;8368;48.772;8.754;2023-06-10T05:35:00;3.53;;;3.33;;
16510;SDS011;8368;48.772;8.754;2023-06-10T05:37:26;3.95;;;3.65;;
16510;SDS011;8368;48.772;8.754;2023-06-10T05:39:52;3.30;;;3.10;;
16510;SDS011;8368;48.772;8.754;2023-06-10T05:42:17;3.63;;;3.33;;
16510;SDS011;8368;48.772;8.754;2023-06-10T05:44:43;3.70;;;2.97;;
16510;SDS011;8368;48.772;8.754;2023-06-10T05:47:08;3.05;;;2.85;;
16510;SDS011;8368;48.772;8.754;2023-06-10T05:49:34;3.83;;;3.53;;
16510;SDS011;8368;48.772;8.754;2023-06-10T05:51:59;3.30;;;3.10;;
16510;SDS011;8368;48.772;8.754;2023-06-10T05:54:25;3.58;;;3.30;;
16510;SDS011;8368;48.772;8.754;2023-06-10T05:56:51;3.80;;;3.50;;
16510;SDS011;8368;48.772;8.754;2023-06-10T05:59:17;3.38;;;3.17;;
16510;SDS011;8368;48.772;8.754;2023-06-10T06:01:42;3.42;;;3.20;;
16510;SDS011;8368;48.772;8.754;2023-06-10T06:04:08;3.70;;;3.50;;
16510;SDS011;8368;48.772;8.754;2023-06-10T06:06:34;3.17;;;2.97;;
16510;SDS011;8368;48.772;8.754;2023-06-10T06:09:00;3.70;;;3.40;;
16510;SDS011;8368;48.772;8.754;2023-06-10T06:11:26;4.57;;;3.80;;
16510;SDS011;8368;48.772;8.754;2023-06-10T06:13:52;3.45;;;3.25;;
16510;SDS011;8368;48.772;8.754;2023-06-10T06:16:17;3.45;;;3.22;;
16510;SDS011;8368;48.772;8.754;2023-06-10T06:18:43;3.67;;;3.45;;
16510;SDS011;8368;48.772;8.754;2023-06-10T06:21:09;3.45;;;3.25;;
16510;SDS011;8368;48.772;8.754;2023-06-10T06:23:34;3.65;;;3.35;;
16510;SDS011;8368;48.772;8.754;2023-06-10T06:26:00;3.50;;;3.30;;
16510;SDS011;8368;48.772;8.754;2023-06-10T06:28:26;3.55;;;3.30;;
16510;SDS011;8368;48.772;8.754;2023-06-10T06:30:54;3.33;;;3.13;;
16510;SDS011;8368;48.772;8.754;2023-06-10T06:33:20;3.20;;;3.00;;
16510;SDS011;8368;48.772;8.754;2023-06-10T06:35:46;3.80;;;3.28;;
16510;SDS011;8368;48.772;8.754;2023-06-10T06:38:11;3.80;;;3.55;;
16510;SDS011;8368;48.772;8.754;2023-06-10T06:40:37;3.38;;;3.17;;
16510;SDS011;8368;48.772;8.754;2023-06-10T06:43:02;3.78;;;3.50;;
16510;SDS011;8368;48.772;8.754;2023-06-10T06:45:28;3.65;;;3.45;;
16510;SDS011;8368;48.772;8.754;2023-06-10T06:47:53;3.00;;;2.90;;
16510;SDS011;8368;48.772;8.754;2023-06-10T06:50:20;3.60;;;3.40;;
16510;SDS011;8368;48.772;8.754;2023-06-10T06:52:46;3.80;;;3.50;;
16510;SDS011;8368;48.772;8.754;2023-06-10T06:55:11;3.60;;;3.40;;
16510;SDS011;8368;48.772;8.754;2023-06-10T06:57:37;3.60;;;3.30;;
16510;SDS011;8368;48.772;8.754;2023-06-10T07:00:03;3.88;;;3.58;;
16510;SDS011;8368;48.772;8.754;2023-06-10T07:02:29;3.42;;;3.22;;
16510;SDS011;8368;48.772;8.754;2023-06-10T07:04:57;3.63;;;3.42;;
16510;SDS011;8368;48.772;8.754;2023-06-10T07:07:23;3.00;;;2.80;;
16510;SDS011;8368;48.772;8.754;2023-06-10T07:09:49;3.55;;;3.28;;
16510;SDS011;8368;48.772;8.754;2023-06-10T07:12:15;3.60;;;3.40;;
16510;SDS011;8368;48.772;8.754;2023-06-10T07:14:40;3.50;;;3.30;;
16510;SDS011;8368;48.772;8.754;2023-06-10T07:17:06;3.65;;;3.35;;
16510;SDS011;8368;48.772;8.754;2023-06-10T07:19:31;3.35;;;3.15;;
16510;SDS011;8368;48.772;8.754;2023-06-10T07:21:57;3.13;;;2.92;;
16510;SDS011;8368;48.772;8.754;2023-06-10T07:24:22;3.45;;;3.33;;
16510;SDS011;8368;48.772;8.754;2023-06-10T07:26:48;4.25;;;3.85;;
16510;SDS011;8368;48.772;8.754;2023-06-10T07:29:13;3.97;;;3.70;;
16510;SDS011;8368;48.772;8.754;2023-06-10T07:31:40;3.17;;;2.95;;
16510;SDS011;8368;48.772;8.754;2023-06-10T07:34:06;3.80;;;3.50;;
16510;SDS011;8368;48.772;8.754;2023-06-10T07:36:32;3.15;;;2.95;;
16510;SDS011;8368;48.772;8.754;2023-06-10T07:38:57;3.15;;;2.95;;
16510;SDS011;8368;48.772;8.754;2023-06-10T07:41:23;2.90;;;2.80;;
16510;SDS011;8368;48.772;8.754;2023-06-10T07:43:55;3.53;;;3.33;;
16510;SDS011;8368;48.772;8.754;2023-06-10T07:46:21;2.92;;;2.83;;
16510;SDS011;8368;48.772;8.754;2023-06-10T07:48:48;3.08;;;2.88;;
16510;SDS011;8368;48.772;8.754;2023-06-10T07:51:17;2.83;;;2.72;;
16510;SDS011;8368;48.772;8.754;2023-06-10T07:53:42;2.72;;;2.58;;
16510;SDS011;8368;48.772;8.754;2023-06-10T07:56:08;3.10;;;2.92;;
16510;SDS011;8368;48.772;8.754;2023-06-10T07:58:33;2.78;;;2.67;;
16510;SDS011;8368;48.772;8.754;2023-06-10T08:00:59;2.47;;;2.33;;
16510;SDS011;8368;48.772;8.754;2023-06-10T08:03:24;2.80;;;2.70;;
16510;SDS011;8368;48.772;8.754;2023-06-10T08:05:50;3.63;;;2.85;;
16510;SDS011;8368;48.772;8.754;2023-06-10T08:08:15;2.95;;;2.85;;
16510;SDS011;8368;48.772;8.754;2023-06-10T08:10:41;2.80;;;2.70;;
16510;SDS011;8368;48.772;8.754;2023-06-10T08:13:07;3.13;;;2.97;;
16510;SDS011;8368;48.772;8.754;2023-06-10T08:15:33;2.92;;;2.72;;
16510;SDS011;8368;48.772;8.754;2023-06-10T08:17:59;2.67;;;2.58;;
16510;SDS011;8368;48.772;8.754;2023-06-10T08:20:24;3.25;;;3.13;;
16510;SDS011;8368;48.772;8.754;2023-06-10T08:22:50;2.53;;;2.42;;
16510;SDS011;8368;48.772;8.754;2023-06-10T08:25:16;3.10;;;3.00;;
16510;SDS011;8368;48.772;8.754;2023-06-10T08:27:41;2.95;;;2.85;;
16510;SDS011;8368;48.772;8.754;2023-06-10T08:30:07;3.33;;;3.13;;
16510;SDS011;8368;48.772;8.754;2023-06-10T08:32:35;3.20;;;3.00;;
16510;SDS011;8368;48.772;8.754;2023-06-10T08:35:00;3.20;;;3.00;;
16510;SDS011;8368;48.772;8.754;2023-06-10T08:37:26;3.17;;;3.00;;
16510;SDS011;8368;48.772;8.754;2023-06-10T08:39:51;3.25;;;3.05;;
16510;SDS011;8368;48.772;8.754;2023-06-10T08:44:58;3.75;;;3.45;;
16510;SDS011;8368;48.772;8.754;2023-06-10T08:47:26;3.33;;;3.13;;
16510;SDS011;8368;48.772;8.754;2023-06-10T08:49:56;3.50;;;3.30;;
16510;SDS011;8368;48.772;8.754;2023-06-10T08:52:28;3.10;;;2.90;;
16510;SDS011;8368;48.772;8.754;2023-06-10T08:55:18;3.20;;;3.00;;
16510;SDS011;8368;48.772;8.754;2023-06-10T08:57:50;3.13;;;3.03;;
16510;SDS011;8368;48.772;8.754;2023-06-10T09:00:17;3.28;;;3.08;;
16510;SDS011;8368;48.772;8.754;2023-06-10T09:02:43;3.40;;;3.20;;
16510;SDS011;8368;48.772;8.754;2023-06-10T09:05:09;3.10;;;2.92;;
16510;SDS011;8368;48.772;8.754;2023-06-10T09:07:35;2.85;;;2.75;;
16510;SDS011;8368;48.772;8.754;2023-06-10T09:10:02;3.55;;;3.35;;
16510;SDS011;8368;48.772;8.754;2023-06-10T09:12:29;2.92;;;2.83;;
16510;SDS011;8368;48.772;8.754;2023-06-10T09:14:55;3.35;;;3.10;;
16510;SDS011;8368;48.772;8.754;2023-06-10T09:17:21;3.25;;;3.05;;
16510;SDS011;8368;48.772;8.754;2023-06-10T09:19:47;3.30;;;3.20;;
16510;SDS011;8368;48.772;8.754;2023-06-10T09:22:13;3.42;;;3.22;;
16510;SDS011;8368;48.772;8.754;2023-06-10T09:24:38;3.13;;;3.03;;
16510;SDS011;8368;48.772;8.754;2023-06-10T09:27:05;3.13;;;3.03;;
16510;SDS011;8368;48.772;8.754;2023-06-10T09:29:32;2.95;;;2.83;;
16510;SDS011;8368;48.772;8.754;2023-06-10T09:32:10;3.50;;;3.20;;
16510;SDS011;8368;48.772;8.754;2023-06-10T09:34:35;3.25;;;3.05;;
16510;SDS011;8368;48.772;8.754;2023-06-10T09:37:01;2.75;;;2.65;;
16510;SDS011;8368;48.772;8.754;2023-06-10T09:39:27;2.45;;;2.45;;
16510;SDS011;8368;48.772;8.754;2023-06-10T09:41:53;2.83;;;2.67;;
16510;SDS011;8368;48.772;8.754;2023-06-10T09:44:19;3.20;;;3.10;;
16510;SDS011;8368;48.772;8.754;2023-06-10T09:46:46;2.60;;;2.50;;
16510;SDS011;8368;48.772;8.754;2023-06-10T09:49:13;2.60;;;2.50;;
16510;SDS011;8368;48.772;8.754;2023-06-10T09:51:54;2.70;;;2.60;;
16510;SDS011;8368;48.772;8.754;2023-06-10T09:54:20;2.60;;;2.50;;
16510;SDS011;8368;48.772;8.754;2023-06-10T09:56:51;2.80;;;2.70;;
16510;SDS011;8368;48.772;8.754;2023-06-10T09:59:36;3.10;;;2.90;;
16510;SDS011;8368;48.772;8.754;2023-06-10T10:02:03;2.90;;;2.80;;
16510;SDS011;8368;48.772;8.754;2023-06-10T10:04:29;2.30;;;2.20;;
16510;SDS011;8368;48.772;8.754;2023-06-10T10:06:55;3.22;;;3.03;;
16510;SDS011;8368;48.772;8.754;2023-06-10T10:09:21;3.13;;;3.03;;
16510;SDS011;8368;48.772;8.754;2023-06-10T10:11:46;3.17;;;3.08;;
16510;SDS011;8368;48.772;8.754;2023-06-10T10:14:13;3.28;;;3.05;;
16510;SDS011;8368;48.772;8.754;2023-06-10T10:16:41;3.22;;;3.03;;
16510;SDS011;8368;48.772;8.754;2023-06-10T10:19:10;2.70;;;2.60;;
16510;SDS011;8368;48.772;8.754;2023-06-10T10:21:52;3.58;;;3.38;;
16510;SDS011;8368;48.772;8.754;2023-06-10T10:24:20;2.95;;;2.85;;
16510;SDS011;8368;48.772;8.754;2023-06-10T10:26:48;3.25;;;3.05;;
16510;SDS011;8368;48.772;8.754;2023-06-10T10:29:20;3.08;;;2.95;;
16510;SDS011;8368;48.772;8.754;2023-06-10T10:31:50;4.60;;;3.05;;
16510;SDS011;8368;48.772;8.754;2023-06-10T10:34:19;3.42;;;3.22;;
16510;SDS011;8368;48.772;8.754;2023-06-10T10:36:54;4.15;;;3.85;;
16510;SDS011;8368;48.772;8.754;2023-06-10T10:39:20;3.25;;;3.10;;
16510;SDS011;8368;48.772;8.754;2023-06-10T10:41:46;2.97;;;2.88;;
16510;SDS011;8368;48.772;8.754;2023-06-10T10:44:12;3.63;;;3.42;;
16510;SDS011;8368;48.772;8.754;2023-06-10T10:46:41;2.75;;;2.55;;
16510;SDS011;8368;48.772;8.754;2023-06-10T10:49:08;3.38;;;3.17;;
16510;SDS011;8368;48.772;8.754;2023-06-10T10:51:35;2.90;;;2.75;;
16510;SDS011;8368;48.772;8.754;2023-06-10T10:54:11;3.08;;;2.97;;
16510;SDS011;8368;48.772;8.754;2023-06-10T10:56:37;3.45;;;3.25;;
16510;SDS011;8368;48.772;8.754;2023-06-10T10:59:03;3.60;;;3.40;;
16510;SDS011;8368;48.772;8.754;2023-06-10T11:01:42;3.22;;;3.13;;
16510;SDS011;8368;48.772;8.754;2023-06-10T11:04:11;3.33;;;3.03;;
16510;SDS011;8368;48.772;8.754;2023-06-10T11:06:37;3.67;;;3.47;;
16510;SDS011;8368;48.772;8.754;2023-06-10T11:09:24;2.97;;;2.88;;
16510;SDS011;8368;48.772;8.754;2023-06-10T11:11:56;3.47;;;3.25;;
16510;SDS011;8368;48.772;8.754;2023-06-10T11:14:27;3.25;;;3.05;;
16510;SDS011;8368;48.772;8.754;2023-06-10T11:16:56;3.10;;;3.00;;
16510;SDS011;8368;48.772;8.754;2023-06-10T11:19:35;3.03;;;2.88;;
16510;SDS011;8368;48.772;8.754;2023-06-10T11:22:05;3.00;;;2.80;;
16510;SDS011;8368;48.772;8.754;2023-06-10T11:24:32;2.80;;;2.70;;
16510;SDS011;8368;48.772;8.754;2023-06-10T11:32:29;3.30;;;3.10;;
16510;SDS011;8368;48.772;8.754;2023-06-10T11:34:56;2.95;;;2.85;;
16510;SDS011;8368;48.772;8.754;2023-06-10T11:37:22;2.78;;;2.67;;
16510;SDS011;8368;48.772;8.754;2023-06-10T11:39:54;2.70;;;2.60;;
16510;SDS011;8368;48.772;8.754;2023-06-10T11:42:23;3.03;;;2.92;;
16510;SDS011;8368;48.772;8.754;2023-06-10T11:44:49;2.80;;;2.67;;
16510;SDS011;8368;48.772;8.754;2023-06-10T11:47:16;2.97;;;2.88;;
16510;SDS011;8368;48.772;8.754;2023-06-10T11:49:43;2.97;;;2.88;;
16510;SDS011;8368;48.772;8.754;2023-06-10T11:52:09;2.70;;;2.60;;
16510;SDS011;8368;48.772;8.754;2023-06-10T11:54:35;2.97;;;2.88;;
16510;SDS011;8368;48.772;8.754;2023-06-10T11:57:01;2.90;;;2.80;;
16510;SDS011;8368;48.772;8.754;2023-06-10T11:59:28;3.05;;;2.95;;
16510;SDS011;8368;48.772;8.754;2023-06-10T12:01:54;3.03;;;2.92;;
16510;SDS011;8368;48.772;8.754;2023-06-10T12:04:20;2.38;;;2.28;;
16510;SDS011;8368;48.772;8.754;2023-06-10T12:06:50;2.35;;;2.25;;
16510;SDS011;8368;48.772;8.754;2023-06-10T12:09:21;2.75;;;2.65;;
16510;SDS011;8368;48.772;8.754;2023-06-10T12:11:51;2.72;;;2.63;;
16510;SDS011;8368;48.772;8.754;2023-06-10T12:17:20;2.67;;;2.58;;
16510;SDS011;8368;48.772;8.754;2023-06-10T12:19:59;2.70;;;2.60;;
16510;SDS011;8368;48.772;8.754;2023-06-10T12:22:39;2.80;;;2.70;;
16510;SDS011;8368;48.772;8.754;2023-06-10T12:25:06;2.65;;;2.55;;
16510;SDS011;8368;48.772;8.754;2023-06-10T12:27:33;3.13;;;2.67;;
16510;SDS011;8368;48.772;8.754;2023-06-10T12:29:59;2.40;;;2.30;;
16510;SDS011;8368;48.772;8.754;2023-06-10T12:35:06;2.80;;;2.70;;
16510;SDS011;8368;48.772;8.754;2023-06-10T12:37:32;2.60;;;2.50;;
16510;SDS011;8368;48.772;8.754;2023-06-10T12:40:02;2.58;;;2.47;;
16510;SDS011;8368;48.772;8.754;2023-06-10T12:42:29;2.50;;;2.40;;
16510;SDS011;8368;48.772;8.754;2023-06-10T12:44:56;2.45;;;2.38;;
16510;SDS011;8368;48.772;8.754;2023-06-10T12:47:31;3.08;;;2.97;;
16510;SDS011;8368;48.772;8.754;2023-06-10T12:50:03;2.60;;;2.50;;
16510;SDS011;8368;48.772;8.754;2023-06-10T12:52:31;2.60;;;2.50;;
16510;SDS011;8368;48.772;8.754;2023-06-10T12:54:57;2.95;;;2.85;;
16510;SDS011;8368;48.772;8.754;2023-06-10T12:57:23;2.80;;;2.60;;
16510;SDS011;8368;48.772;8.754;2023-06-10T12:59:49;2.10;;;2.10;;
16510;SDS011;8368;48.772;8.754;2023-06-10T13:02:17;3.03;;;2.83;;
16510;SDS011;8368;48.772;8.754;2023-06-10T13:04:44;3.03;;;2.92;;
16510;SDS011;8368;48.772;8.754;2023-06-10T13:07:10;2.40;;;2.30;;
16510;SDS011;8368;48.772;8.754;2023-06-10T13:09:36;2.92;;;2.83;;
16510;SDS011;8368;48.772;8.754;2023-06-10T13:12:02;2.85;;;2.75;;
16510;SDS011;8368;48.772;8.754;2023-06-10T13:14:27;2.50;;;2.40;;
16510;SDS011;8368;48.772;8.754;2023-06-10T13:16:53;2.85;;;2.75;;
16510;SDS011;8368;48.772;8.754;2023-06-10T13:19:19;2.30;;;2.22;;
16510;SDS011;8368;48.772;8.754;2023-06-10T13:21:46;2.25;;;2.20;;
16510;SDS011;8368;48.772;8.754;2023-06-10T13:24:12;2.58;;;2.53;;
16510;SDS011;8368;48.772;8.754;2023-06-10T13:26:38;2.75;;;2.65;;
16510;SDS011;8368;48.772;8.754;2023-06-10T13:29:03;3.03;;;2.92;;
16510;SDS011;8368;48.772;8.754;2023-06-10T13:31:29;2.55;;;2.45;;
16510;SDS011;8368;48.772;8.754;2023-06-10T13:33:54;3.10;;;3.00;;
16510;SDS011;8368;48.772;8.754;2023-06-10T13:36:20;2.40;;;2.40;;
16510;SDS011;8368;48.772;8.754;2023-06-10T13:38:46;2.20;;;2.20;;
16510;SDS011;8368;48.772;8.754;2023-06-10T13:41:12;2.45;;;2.35;;
16510;SDS011;8368;48.772;8.754;2023-06-10T13:43:38;2.70;;;2.60;;
16510;SDS011;8368;48.772;8.754;2023-06-10T13:46:04;2.63;;;2.53;;
16510;SDS011;8368;48.772;8.754;2023-06-10T13:48:30;2.55;;;2.45;;
16510;SDS011;8368;48.772;8.754;2023-06-10T13:50:56;2.05;;;1.95;;
16510;SDS011;8368;48.772;8.754;2023-06-10T13:53:21;2.15;;;2.15;;
16510;SDS011;8368;48.772;8.754;2023-06-10T13:55:47;2.08;;;2.08;;
16510;SDS011;8368;48.772;8.754;2023-06-10T13:58:13;2.10;;;2.10;;
16510;SDS011;8368;48.772;8.754;2023-06-10T14:00:38;2.03;;;2.03;;
16510;SDS011;8368;48.772;8.754;2023-06-10T14:03:04;2.38;;;2.38;;
16510;SDS011;8368;48.772;8.754;2023-06-10T14:05:29;2.00;;;2.00;;
16510;SDS011;8368;48.772;8.754;2023-06-10T14:07:55;2.10;;;2.10;;
16510;SDS011;8368;48.772;8.754;2023-06-10T14:10:21;2.00;;;1.90;;
16510;SDS011;8368;48.772;8.754;2023-06-10T14:12:46;2.40;;;2.30;;
16510;SDS011;8368;48.772;8.754;2023-06-10T14:15:12;1.98;;;1.98;;
16510;SDS011;8368;48.772;8.754;2023-06-10T14:17:37;2.13;;;2.03;;
16510;SDS011;8368;48.772;8.754;2023-06-10T14:20:03;2.13;;;2.13;;
16510;SDS011;8368;48.772;8.754;2023-06-10T14:22:29;2.10;;;2.00;;
16510;SDS011;8368;48.772;8.754;2023-06-10T14:24:54;2.40;;;2.40;;
16510;SDS011;8368;48.772;8.754;2023-06-10T14:27:20;2.30;;;2.20;;
16510;SDS011;8368;48.772;8.754;2023-06-10T14:29:45;2.10;;;2.10;;
16510;SDS011;8368;48.772;8.754;2023-06-10T14:32:11;2.55;;;2.45;;
16510;SDS011;8368;48.772;8.754;2023-06-10T14:34:36;2.50;;;2.40;;
16510;SDS011;8368;48.772;8.754;2023-06-10T14:37:04;2.53;;;2.53;;
16510;SDS011;8368;48.772;8.754;2023-06-10T14:39:32;2.47;;;2.40;;
16510;SDS011;8368;48.772;8.754;2023-06-10T14:41:58;2.00;;;2.00;;
16510;SDS011;8368;48.772;8.754;2023-06-10T14:44:23;2.45;;;2.25;;
16510;SDS011;8368;48.772;8.754;2023-06-10T14:46:49;2.65;;;2.55;;
16510;SDS011;8368;48.772;8.754;2023-06-10T14:49:14;2.30;;;2.20;;
16510;SDS011;8368;48.772;8.754;2023-06-10T14:51:40;2.22;;;2.13;;
16510;SDS011;8368;48.772;8.754;2023-06-10T14:54:05;2.42;;;2.33;;
16510;SDS011;8368;48.772;8.754;2023-06-10T14:56:31;2.20;;;2.20;;
16510;SDS011;8368;48.772;8.754;2023-06-10T14:58:57;4.18;;;2.50;;
16510;SDS011;8368;48.772;8.754;2023-06-10T15:01:22;2.40;;;2.40;;
16510;SDS011;8368;48.772;8.754;2023-06-10T15:03:48;2.47;;;2.38;;
16510;SDS011;8368;48.772;8.754;2023-06-10T15:06:13;2.22;;;2.22;;
16510;SDS011;8368;48.772;8.754;2023-06-10T15:08:42;2.20;;;2.10;;
16510;SDS011;8368;48.772;8.754;2023-06-10T15:11:08;2.38;;;2.28;;
16510;SDS011;8368;48.772;8.754;2023-06-10T15:13:33;2.38;;;2.28;;
16510;SDS011;8368;48.772;8.754;2023-06-10T15:15:59;2.42;;;2.25;;